createdAt,value
2022-10-08T00:00:02.111Z,1.35
2022-10-08T00:05:13.998Z,1.20
2022-10-08T00:10:15.588Z,1.92
2022-10-08T00:15:17.283Z,2.13
2022-10-08T00:20:19.472Z,1.70
2022-10-08T00:25:21.563Z,1.10
2022-10-08T00:30:23.171Z,1.70
2022-10-08T00:35:24.799Z,1.50
2022-10-08T00:40:27.483Z,1.77
2022-10-08T00:45:29.262Z,1.70
2022-10-08T00:50:34.543Z,1.63
2022-10-08T00:55:43.578Z,1.20
2022-10-08T01:00:46.206Z,1.30
2022-10-08T01:05:58.334Z,1.48
2022-10-08T01:11:31.090Z,2.65
2022-10-08T01:16:48.633Z,1.58
2022-10-08T01:22:12.298Z,1.38
2022-10-08T01:27:32.068Z,2.30
2022-10-08T01:32:47.059Z,2.55
2022-10-08T01:37:50.595Z,1.95
2022-10-08T01:42:54.419Z,1.77
2022-10-08T01:47:59.976Z,1.48
2022-10-08T01:53:06.540Z,1.58
2022-10-08T01:58:18.413Z,1.25
2022-10-08T02:03:20.191Z,1.20
2022-10-08T02:08:23.057Z,1.08
2022-10-08T02:13:24.795Z,1.77
2022-10-08T02:19:01.693Z,1.65
2022-10-08T02:24:16.580Z,1.20
2022-10-08T02:29:38.833Z,1.60
2022-10-08T02:34:50.032Z,1.20
2022-10-08T02:40:00.003Z,1.23
2022-10-08T02:45:08.418Z,1.02
2022-10-08T02:50:19.208Z,1.10
2022-10-08T02:55:29.289Z,1.00
2022-10-08T03:00:40.184Z,1.08
2022-10-08T03:05:43.059Z,1.00
2022-10-08T03:10:45.051Z,1.42
2022-10-08T03:15:49.701Z,1.45
2022-10-08T03:20:54.582Z,1.45
2022-10-08T03:25:56.302Z,1.20
2022-10-08T03:30:58.037Z,1.55
2022-10-08T03:35:59.673Z,1.25
2022-10-08T03:41:01.606Z,1.05
2022-10-08T03:46:05.017Z,1.42
2022-10-08T03:51:11.146Z,1.88
2022-10-08T03:56:18.345Z,1.30
2022-10-08T04:01:20.471Z,1.33
2022-10-08T04:06:28.351Z,1.23
2022-10-08T04:11:29.987Z,1.27
2022-10-08T04:16:31.650Z,0.90
2022-10-08T04:21:33.418Z,1.27
2022-10-08T04:26:35.371Z,1.30
2022-10-08T04:31:37.005Z,1.58
2022-10-08T04:36:39.055Z,1.10
2022-10-08T04:41:40.600Z,1.10
2022-10-08T04:46:42.266Z,1.52
2022-10-08T04:51:43.895Z,1.50
2022-10-08T04:56:45.510Z,1.25
2022-10-08T05:01:47.190Z,1.20
2022-10-08T05:06:49.172Z,1.70
2022-10-08T05:11:51.507Z,1.45
2022-10-08T05:16:53.216Z,1.33
2022-10-08T05:21:54.905Z,1.42
2022-10-08T05:26:59.093Z,1.58
2022-10-08T05:32:01.173Z,0.98
2022-10-08T05:37:02.755Z,0.77
2022-10-08T05:42:04.442Z,1.30
2022-10-08T05:47:06.275Z,0.73
2022-10-08T05:52:07.925Z,1.50
2022-10-08T05:57:09.672Z,1.60
2022-10-08T06:02:11.676Z,1.42
2022-10-08T06:07:13.416Z,1.23
2022-10-08T06:12:15.040Z,1.35
2022-10-08T06:17:16.674Z,1.17
2022-10-08T06:22:18.247Z,0.98
2022-10-08T06:27:41.932Z,1.38
2022-10-08T06:32:43.942Z,2.22
2022-10-08T06:37:48.385Z,1.30
2022-10-08T06:42:50.139Z,1.30
2022-10-08T06:47:52.036Z,1.33
2022-10-08T06:52:53.657Z,1.42
2022-10-08T06:57:55.279Z,1.05
2022-10-08T07:02:57.833Z,1.00
2022-10-08T07:07:59.439Z,1.83
2022-10-08T07:13:01.033Z,1.30
2022-10-08T07:18:02.648Z,1.10
2022-10-08T07:23:04.387Z,1.40
2022-10-08T07:28:06.094Z,1.02
2022-10-08T07:33:07.743Z,1.00
2022-10-08T07:38:09.476Z,1.08
2022-10-08T07:43:11.432Z,1.20
2022-10-08T07:48:13.218Z,1.02
2022-10-08T07:53:14.923Z,1.55
2022-10-08T07:58:16.595Z,2.38
2022-10-08T08:03:18.148Z,1.95
2022-10-08T08:08:25.655Z,1.95
2022-10-08T08:13:34.313Z,1.30
2022-10-08T08:18:41.441Z,1.30
2022-10-08T08:23:45.643Z,1.30
2022-10-08T08:28:56.577Z,1.30
2022-10-08T08:34:01.236Z,1.08
2022-10-08T08:39:04.614Z,1.13
2022-10-08T08:44:18.828Z,1.35
2022-10-08T08:49:34.786Z,1.38
2022-10-08T08:54:36.745Z,1.33
2022-10-08T08:59:46.648Z,1.33
2022-10-08T09:04:53.500Z,1.20
2022-10-08T09:09:58.901Z,1.33
2022-10-08T09:15:01.775Z,1.10
2022-10-08T09:20:23.590Z,1.23
2022-10-08T09:25:31.245Z,2.08
2022-10-08T09:30:41.803Z,0.85
2022-10-08T09:35:50.776Z,1.25
2022-10-08T09:40:59.522Z,1.58
2022-10-08T09:46:11.335Z,1.25
2022-10-08T09:51:16.824Z,1.20
2022-10-08T09:56:28.802Z,1.50
2022-10-08T10:01:31.769Z,1.38
2022-10-08T10:06:40.430Z,1.58
2022-10-08T10:11:49.547Z,1.15
2022-10-08T10:16:58.804Z,1.27
2022-10-08T10:22:11.506Z,1.65
2022-10-08T10:27:26.654Z,2.10
2022-10-08T10:32:34.884Z,1.83
2022-10-08T10:37:44.839Z,1.95
2022-10-08T10:43:09.300Z,1.77
2022-10-08T10:48:14.369Z,1.42
2022-10-08T10:53:22.324Z,1.10
2022-10-08T10:58:44.414Z,1.38
2022-10-08T11:04:04.413Z,1.20
2022-10-08T11:14:38.956Z,1.58
2022-10-08T11:19:40.498Z,1.60
2022-10-08T11:24:55.629Z,1.70
2022-10-08T11:30:08.087Z,1.85
2022-10-08T11:35:12.831Z,1.48
2022-10-08T11:40:18.730Z,1.67
2022-10-08T11:45:23.148Z,2.10
2022-10-08T11:50:32.381Z,1.33
2022-10-08T11:55:34.194Z,1.40
2022-10-08T12:00:39.010Z,1.10
2022-10-08T12:05:49.491Z,1.60
2022-10-08T12:10:51.908Z,1.48
2022-10-08T12:15:55.488Z,1.33
2022-10-08T12:21:15.883Z,1.10
2022-10-08T12:26:17.557Z,1.10
2022-10-08T12:31:35.703Z,1.20
2022-10-08T12:36:46.928Z,1.55
2022-10-08T12:41:57.591Z,1.48
2022-10-08T12:47:18.146Z,1.27
2022-10-08T12:52:21.366Z,0.93
2022-10-08T12:57:27.506Z,1.27
2022-10-08T13:03:01.741Z,0.90
2022-10-08T13:08:18.907Z,1.10
2022-10-08T13:13:38.942Z,1.25
2022-10-08T13:18:43.661Z,1.30
2022-10-08T13:23:45.253Z,1.15
2022-10-08T13:28:59.736Z,1.23
2022-10-08T13:34:03.853Z,1.38
2022-10-08T13:39:05.882Z,1.08
2022-10-08T13:44:09.688Z,1.65
2022-10-08T13:49:37.683Z,1.52
2022-10-08T13:54:42.326Z,1.33
2022-10-08T13:59:44.298Z,1.33
2022-10-08T14:04:46.827Z,1.10
2022-10-08T14:09:48.470Z,1.73
2022-10-08T14:14:50.069Z,1.15
2022-10-08T14:19:52.318Z,1.48
2022-10-08T14:24:54.159Z,0.68
2022-10-08T14:29:55.776Z,1.05
2022-10-08T14:34:57.335Z,1.60
2022-10-08T14:39:59.047Z,0.90
2022-10-08T14:45:01.298Z,1.02
2022-10-08T14:50:03.555Z,1.15
2022-10-08T14:55:06.016Z,1.05
2022-10-08T15:00:08.534Z,1.08
2022-10-08T15:05:10.169Z,1.73
2022-10-08T15:10:11.804Z,1.20
2022-10-08T15:15:13.524Z,1.35
2022-10-08T15:20:15.590Z,1.55
2022-10-08T15:25:17.381Z,1.20
2022-10-08T15:30:19.072Z,0.90
2022-10-08T15:35:20.799Z,1.42
2022-10-08T15:40:22.604Z,1.33
2022-10-08T15:45:24.343Z,1.48
2022-10-08T15:50:25.977Z,1.30
2022-10-08T15:55:27.513Z,1.13
2022-10-08T16:00:29.155Z,1.50
2022-10-08T16:05:30.742Z,1.45
2022-10-08T16:10:32.492Z,0.90
2022-10-08T16:15:37.802Z,2.10
2022-10-08T16:20:39.449Z,1.25
2022-10-08T16:25:45.334Z,1.90
2022-10-08T16:30:47.145Z,1.20
2022-10-08T16:35:48.768Z,1.40
2022-10-08T16:40:51.346Z,1.50
2022-10-08T16:45:52.961Z,1.58
2022-10-08T16:50:54.674Z,1.13
2022-10-08T16:55:56.297Z,2.20
2022-10-08T17:00:58.119Z,2.08
2022-10-08T17:06:00.404Z,1.40
2022-10-08T17:11:07.424Z,1.70
2022-10-08T17:16:09.498Z,2.78
2022-10-08T17:21:12.353Z,1.75
2022-10-08T17:26:16.758Z,2.38
2022-10-08T17:31:27.267Z,1.92
2022-10-08T17:36:31.974Z,1.83
2022-10-08T17:41:36.332Z,1.48
2022-10-08T17:46:45.487Z,2.28
2022-10-08T17:51:47.781Z,2.00
2022-10-08T17:56:49.953Z,1.58
2022-10-08T18:01:51.830Z,1.50
2022-10-08T18:06:59.794Z,2.42
2022-10-08T18:12:04.437Z,2.13
2022-10-08T18:17:06.080Z,2.20
2022-10-08T18:22:07.766Z,1.27
2022-10-08T18:27:09.556Z,1.20
2022-10-08T18:32:11.258Z,2.42
2022-10-08T18:37:12.811Z,2.10
2022-10-08T18:42:14.436Z,1.75
2022-10-08T18:47:16.440Z,2.20
2022-10-08T18:52:21.516Z,1.90
2022-10-08T18:57:23.487Z,1.50
2022-10-08T19:02:25.223Z,11.70
2022-10-08T19:07:26.925Z,2.75
2022-10-08T19:12:28.570Z,2.30
2022-10-08T19:17:30.271Z,2.08
2022-10-08T19:22:31.857Z,1.40
2022-10-08T19:27:33.443Z,2.80
2022-10-08T19:32:35.254Z,1.90
2022-10-08T19:37:36.947Z,2.13
2022-10-08T19:42:38.614Z,2.47
2022-10-08T19:47:40.292Z,2.13
2022-10-08T19:52:41.938Z,1.80
2022-10-08T19:57:43.611Z,3.70
2022-10-08T20:02:45.416Z,3.28
2022-10-08T20:07:47.259Z,3.80
2022-10-08T20:12:49.165Z,3.25
2022-10-08T20:17:51.216Z,4.07
2022-10-08T20:22:53.148Z,5.25
2022-10-08T20:27:54.812Z,5.80
2022-10-08T20:32:56.482Z,6.47
2022-10-08T20:37:58.089Z,6.43
2022-10-08T20:42:59.833Z,5.80
2022-10-08T20:48:01.497Z,6.70
2022-10-08T20:53:03.106Z,5.85
2022-10-08T20:58:05.229Z,5.53
2022-10-08T21:03:06.831Z,4.45
2022-10-08T21:08:09.429Z,4.97
2022-10-08T21:13:11.090Z,4.30
2022-10-08T21:18:12.722Z,4.20
2022-10-08T21:23:14.473Z,4.22
2022-10-08T21:28:16.199Z,3.70
2022-10-08T21:33:17.834Z,3.95
2022-10-08T21:38:19.410Z,3.58
2022-10-08T21:43:20.980Z,2.78
2022-10-08T21:48:24.036Z,3.38
2022-10-08T21:53:27.638Z,4.22
2022-10-08T21:58:31.688Z,4.10
2022-10-08T22:03:40.121Z,4.70
2022-10-08T22:08:41.680Z,3.55
2022-10-08T22:13:43.661Z,3.88
2022-10-08T22:18:45.495Z,4.55
2022-10-08T22:23:48.070Z,4.07
2022-10-08T22:28:50.301Z,5.03
2022-10-08T22:33:52.742Z,4.50
2022-10-08T22:38:55.250Z,5.00
2022-10-08T22:43:57.494Z,5.28
2022-10-08T22:49:01.612Z,5.05
2022-10-08T22:54:03.607Z,4.82
2022-10-08T22:59:05.373Z,4.68
2022-10-08T23:04:07.041Z,5.60
2022-10-08T23:09:12.156Z,4.35
2022-10-08T23:14:13.808Z,4.03
2022-10-08T23:19:16.732Z,3.85
2022-10-08T23:24:18.388Z,3.88
2022-10-08T23:29:19.996Z,4.35
2022-10-08T23:34:21.902Z,4.55
2022-10-08T23:39:23.623Z,4.75
2022-10-08T23:44:25.244Z,4.88
2022-10-08T23:49:28.282Z,4.32
2022-10-08T23:54:29.848Z,4.20
2022-10-08T23:59:31.450Z,4.15
